Time;durP1;ratioP1;P1;durP2;ratioP2;P2;SDS_P1;SDS_P2;PMS_P1;PMS_P2;Temp;Humidity;BMP_temperature;BMP_pressure;BME280_temperature;BME280_humidity;BME280_pressure;Samples;Min_cycle;Max_cycle;Signal;HPM_P1;HPM_P2
2023/04/05 00:01:20;;;;;;;3.65;3.03;;;;;;;;;;8298591;28;20072;-62
2023/04/05 00:05:28;;;;;;;4.55;2.90;;;;;;;;;;8298113;28;20139;-62
2023/04/05 00:09:28;;;;;;;3.92;2.50;;;;;;;;;;8299674;28;20021;-61
2023/04/05 00:13:29;;;;;;;3.65;2.17;;;;;;;;;;8299929;28;20025;-61
2023/04/05 00:17:30;;;;;;;3.60;2.45;;;;;;;;;;8296996;28;20044;-61
2023/04/05 00:21:32;;;;;;;2.70;2.42;;;;;;;;;;8297546;28;20593;-61
2023/04/05 00:25:32;;;;;;;3.13;2.20;;;;;;;;;;8298952;28;20025;-61
2023/04/05 00:29:32;;;;;;;3.88;2.13;;;;;;;;;;8299403;28;20028;-61
2023/04/05 00:33:32;;;;;;;2.87;2.07;;;;;;;;;;8300362;28;20186;-62
2023/04/05 00:37:32;;;;;;;3.45;2.15;;;;;;;;;;8303328;28;20920;-62
2023/04/05 00:41:33;;;;;;;3.85;2.17;;;;;;;;;;8306068;28;20025;-62
2023/04/05 00:45:33;;;;;;;2.70;2.10;;;;;;;;;;8305671;28;20032;-62
2023/04/05 00:49:35;;;;;;;2.75;1.98;;;;;;;;;;8304067;28;20030;-62
2023/04/05 00:53:36;;;;;;;4.55;2.38;;;;;;;;;;8305484;28;20029;-61
2023/04/05 00:57:38;;;;;;;3.20;2.50;;;;;;;;;;8302743;28;20484;-62
2023/04/05 01:01:39;;;;;;;6.45;2.55;;;;;;;;;;8295832;28;20878;-61
2023/04/05 01:05:42;;;;;;;3.30;2.67;;;;;;;;;;8301191;28;20033;-62
2023/04/05 01:09:47;;;;;;;5.17;2.33;;;;;;;;;;8304271;28;20034;-62
2023/04/05 01:13:47;;;;;;;2.55;2.20;;;;;;;;;;8301221;28;20116;-62
2023/04/05 01:17:47;;;;;;;1.90;1.70;;;;;;;;;;8302692;28;20606;-62
2023/04/05 01:21:57;;;;;;;4.22;2.08;;;;;;;;;;8300381;28;20083;-62
2023/04/05 01:26:11;;;;;;;2.15;1.80;;;;;;;;;;8303635;28;20029;-62
2023/04/05 01:30:11;;;;;;;;;;;;;;;;;;8301260;28;21038;-62
2023/04/05 01:34:18;;;;;;;2.80;1.65;;;;;;;;;;8303535;28;19916;-62
2023/04/05 01:38:21;;;;;;;2.70;2.05;;;;;;;;;;8302817;28;20122;-62
2023/04/05 01:42:25;;;;;;;2.67;1.83;;;;;;;;;;8301105;28;21060;-62
2023/04/05 01:46:25;;;;;;;1.83;1.65;;;;;;;;;;8301249;28;20051;-62
2023/04/05 01:50:25;;;;;;;2.35;2.10;;;;;;;;;;8286585;28;20104;-61
2023/04/05 01:54:25;;;;;;;2.97;1.90;;;;;;;;;;8301900;28;20052;-62
2023/04/05 01:58:26;;;;;;;2.88;2.20;;;;;;;;;;8301608;28;20029;-61
2023/04/05 02:02:26;;;;;;;4.13;1.95;;;;;;;;;;8301349;28;20036;-61
2023/04/05 02:06:27;;;;;;;4.00;2.05;;;;;;;;;;8302383;28;20793;-61
2023/04/05 02:10:27;;;;;;;3.25;1.80;;;;;;;;;;8298738;28;20067;-62
2023/04/05 02:14:27;;;;;;;3.00;1.80;;;;;;;;;;8300268;28;20022;-61
2023/04/05 02:18:30;;;;;;;2.15;1.90;;;;;;;;;;8302993;28;20037;-61
2023/04/05 02:22:31;;;;;;;2.80;2.05;;;;;;;;;;8301753;28;20031;-62
2023/04/05 02:26:31;;;;;;;3.95;1.85;;;;;;;;;;8299673;28;20029;-62
2023/04/05 02:30:32;;;;;;;5.05;2.28;;;;;;;;;;8299826;28;20124;-61
2023/04/05 02:34:32;;;;;;;4.93;2.33;;;;;;;;;;8300853;28;20108;-62
2023/04/05 02:38:32;;;;;;;4.70;2.17;;;;;;;;;;8298230;28;20033;-62
2023/04/05 02:42:32;;;;;;;2.07;1.87;;;;;;;;;;8291546;28;20065;-62
2023/04/05 02:46:33;;;;;;;2.97;2.13;;;;;;;;;;8299245;28;20280;-62
2023/04/05 02:50:33;;;;;;;3.80;2.00;;;;;;;;;;8299884;28;20029;-61
2023/04/05 02:54:34;;;;;;;3.72;2.30;;;;;;;;;;8301471;28;20110;-61
2023/04/05 02:58:34;;;;;;;3.15;1.92;;;;;;;;;;8299130;28;20036;-61
2023/04/05 03:02:36;;;;;;;3.03;2.30;;;;;;;;;;8300056;28;20508;-62
2023/04/05 03:06:37;;;;;;;2.97;2.05;;;;;;;;;;8301410;28;20104;-62
2023/04/05 03:10:40;;;;;;;6.03;2.30;;;;;;;;;;8300798;28;20025;-61
2023/04/05 03:14:40;;;;;;;4.00;2.22;;;;;;;;;;8299889;28;20104;-61
2023/04/05 03:18:40;;;;;;;3.75;2.40;;;;;;;;;;8298882;28;20485;-61
2023/04/05 03:22:41;;;;;;;2.95;2.13;;;;;;;;;;8300184;28;20021;-61
2023/04/05 03:26:44;;;;;;;3.83;2.20;;;;;;;;;;8298591;28;20442;-61
2023/04/05 03:30:45;;;;;;;3.38;2.25;;;;;;;;;;8297755;28;20037;-62
2023/04/05 03:34:45;;;;;;;3.28;2.28;;;;;;;;;;8300522;28;20135;-62
2023/04/05 03:38:45;;;;;;;3.63;2.10;;;;;;;;;;8298735;28;20047;-61
2023/04/05 03:42:45;;;;;;;4.07;2.17;;;;;;;;;;8298425;28;20500;-61
2023/04/05 03:46:46;;;;;;;2.95;2.25;;;;;;;;;;8297685;28;20643;-62
2023/04/05 03:50:46;;;;;;;2.55;2.30;;;;;;;;;;8297427;28;20136;-62
2023/04/05 03:54:46;;;;;;;2.60;2.20;;;;;;;;;;8296545;28;20029;-61
2023/04/05 03:58:46;;;;;;;2.78;2.13;;;;;;;;;;8298211;28;20033;-62
2023/04/05 04:02:47;;;;;;;3.38;2.33;;;;;;;;;;8297857;28;20072;-62
2023/04/05 04:06:47;;;;;;;2.60;2.38;;;;;;;;;;8290647;28;20033;-62
2023/04/05 04:10:47;;;;;;;2.22;1.98;;;;;;;;;;8304628;28;20591;-61
2023/04/05 04:14:47;;;;;;;2.30;2.10;;;;;;;;;;8305302;28;20024;-62
2023/04/05 04:18:48;;;;;;;3.42;2.45;;;;;;;;;;8306138;28;20046;-61
2023/04/05 04:22:48;;;;;;;3.27;2.50;;;;;;;;;;8306631;28;20691;-62
2023/04/05 04:26:49;;;;;;;3.05;2.33;;;;;;;;;;8303127;28;20283;-62
2023/04/05 04:30:49;;;;;;;4.20;2.00;;;;;;;;;;8304759;28;20227;-62
2023/04/05 04:34:53;;;;;;;3.90;2.60;;;;;;;;;;8303459;28;20036;-61
2023/04/05 04:38:53;;;;;;;3.60;2.80;;;;;;;;;;8305006;28;20033;-62
2023/04/05 04:42:57;;;;;;;3.85;2.92;;;;;;;;;;8303403;28;20302;-61
2023/04/05 04:46:57;;;;;;;4.32;3.03;;;;;;;;;;8300780;28;20044;-62
2023/04/05 04:50:57;;;;;;;7.05;3.08;;;;;;;;;;8303469;28;20489;-62
2023/04/05 04:54:58;;;;;;;3.80;2.65;;;;;;;;;;8302765;28;20013;-62
2023/04/05 04:58:58;;;;;;;4.95;2.70;;;;;;;;;;8303155;28;20751;-62
2023/04/05 05:02:58;;;;;;;4.18;2.70;;;;;;;;;;8303827;28;20114;-62
2023/04/05 05:06:58;;;;;;;9.82;3.10;;;;;;;;;;8301148;28;20023;-62
2023/04/05 05:10:59;;;;;;;6.88;3.17;;;;;;;;;;8302635;28;21150;-62
2023/04/05 05:14:59;;;;;;;3.97;2.47;;;;;;;;;;8293888;28;20124;-62
2023/04/05 05:19:00;;;;;;;29.20;11.18;;;;;;;;;;8300907;28;20079;-61
2023/04/05 05:23:02;;;;;;;21.58;9.48;;;;;;;;;;8301128;28;20025;-62
2023/04/05 05:27:03;;;;;;;7.53;4.07;;;;;;;;;;8301340;28;20139;-63
2023/04/05 05:31:03;;;;;;;5.65;3.10;;;;;;;;;;8300732;28;20666;-62
2023/04/05 05:35:03;;;;;;;10.93;3.30;;;;;;;;;;8302011;28;20509;-62
2023/04/05 05:39:06;;;;;;;6.07;3.20;;;;;;;;;;8298960;28;20040;-62
2023/04/05 05:43:07;;;;;;;20.75;10.05;;;;;;;;;;8302857;28;20024;-61
2023/04/05 05:47:07;;;;;;;24.92;10.20;;;;;;;;;;8300792;28;20147;-61
2023/04/05 05:51:10;;;;;;;9.48;4.47;;;;;;;;;;8301131;28;20025;-62
2023/04/05 05:55:10;;;;;;;9.63;3.75;;;;;;;;;;8296200;28;20602;-62
2023/04/05 05:59:10;;;;;;;5.87;3.67;;;;;;;;;;8295543;28;20021;-62
2023/04/05 06:03:11;;;;;;;8.32;4.15;;;;;;;;;;8295282;28;20787;-63
2023/04/05 06:07:11;;;;;;;7.30;4.20;;;;;;;;;;8287686;28;20108;-62
2023/04/05 06:11:21;;;;;;;16.17;7.88;;;;;;;;;;8281747;28;20029;-63
2023/04/05 06:15:21;;;;;;;17.70;6.68;;;;;;;;;;8289903;28;20028;-63
2023/04/05 06:19:22;;;;;;;7.15;4.47;;;;;;;;;;8288664;28;20324;-63
2023/04/05 06:23:22;;;;;;;8.30;4.93;;;;;;;;;;8288360;28;20445;-62
2023/04/05 06:27:22;;;;;;;8.43;3.95;;;;;;;;;;8288389;28;20083;-62
2023/04/05 06:31:26;;;;;;;6.50;3.42;;;;;;;;;;8290419;28;20437;-61
2023/04/05 06:35:26;;;;;;;;;;;;;;;;;;8289608;28;20107;-61
2023/04/05 06:39:26;;;;;;;6.30;3.13;;;;;;;;;;8287133;28;19913;-61
2023/04/05 06:43:27;;;;;;;5.78;2.95;;;;;;;;;;8287284;28;20773;-61
2023/04/05 06:47:27;;;;;;;7.07;2.97;;;;;;;;;;8281350;28;20364;-61
2023/04/05 06:51:28;;;;;;;7.43;3.35;;;;;;;;;;8274790;28;20277;-61
2023/04/05 06:55:28;;;;;;;4.25;2.65;;;;;;;;;;8271151;28;20033;-62
2023/04/05 06:59:28;;;;;;;3.92;2.38;;;;;;;;;;8288206;28;20037;-61
2023/04/05 07:03:29;;;;;;;3.50;2.65;;;;;;;;;;8289283;28;20102;-61
2023/04/05 07:07:33;;;;;;;8.35;2.70;;;;;;;;;;8288695;28;20037;-61
2023/04/05 07:11:33;;;;;;;3.28;2.33;;;;;;;;;;8290458;28;20028;-62
2023/04/05 07:15:34;;;;;;;3.70;2.45;;;;;;;;;;8282777;28;20034;-61
2023/04/05 07:19:34;;;;;;;4.57;2.75;;;;;;;;;;8285983;28;20350;-61
2023/04/05 07:23:34;;;;;;;3.67;2.50;;;;;;;;;;8287698;28;20398;-61
2023/04/05 07:27:35;;;;;;;3.77;2.47;;;;;;;;;;8286982;28;20486;-61
2023/04/05 07:31:35;;;;;;;3.08;2.72;;;;;;;;;;8284825;28;20708;-61
2023/04/05 07:35:35;;;;;;;3.35;2.65;;;;;;;;;;8287200;28;20021;-61
2023/04/05 07:39:35;;;;;;;4.73;2.67;;;;;;;;;;8289051;28;20067;-61
2023/04/05 07:43:36;;;;;;;4.25;2.75;;;;;;;;;;8290352;28;20668;-61
2023/04/05 07:47:36;;;;;;;3.90;2.50;;;;;;;;;;8294139;28;20481;-66
2023/04/05 07:51:37;;;;;;;5.13;3.00;;;;;;;;;;8295367;28;20036;-61
2023/04/05 07:55:37;;;;;;;3.53;2.70;;;;;;;;;;8298322;28;20316;-61
2023/04/05 07:59:37;;;;;;;4.13;2.65;;;;;;;;;;8291872;28;20581;-61
2023/04/05 08:03:38;;;;;;;4.30;2.65;;;;;;;;;;8298102;28;20510;-61
2023/04/05 08:07:38;;;;;;;4.18;2.80;;;;;;;;;;8297970;28;20076;-62
2023/04/05 08:11:39;;;;;;;4.07;2.50;;;;;;;;;;8288534;28;20091;-61
2023/04/05 08:15:39;;;;;;;4.75;2.53;;;;;;;;;;8288435;28;20049;-61
2023/04/05 08:19:39;;;;;;;4.90;2.50;;;;;;;;;;8290966;28;20355;-62
2023/04/05 08:23:40;;;;;;;3.45;2.70;;;;;;;;;;8291061;28;20068;-62
2023/04/05 08:27:40;;;;;;;4.22;2.70;;;;;;;;;;8290488;28;20040;-62
2023/04/05 08:31:41;;;;;;;4.43;2.67;;;;;;;;;;8289824;28;20882;-61
2023/04/05 08:35:41;;;;;;;3.50;2.53;;;;;;;;;;8292925;28;20580;-61
2023/04/05 08:39:42;;;;;;;3.55;2.45;;;;;;;;;;8291608;28;20545;-62
2023/04/05 08:43:56;;;;;;;4.55;2.30;;;;;;;;;;8289535;28;20021;-62
2023/04/05 08:47:56;;;;;;;7.45;2.78;;;;;;;;;;8290051;28;20036;-62
2023/04/05 08:51:58;;;;;;;4.72;2.40;;;;;;;;;;8292487;28;20110;-62
2023/04/05 08:55:59;;;;;;;2.90;2.28;;;;;;;;;;8292071;28;20036;-63
2023/04/05 09:00:00;;;;;;;4.47;2.70;;;;;;;;;;8290453;28;20267;-62
2023/04/05 09:04:01;;;;;;;4.30;2.50;;;;;;;;;;8290319;28;20084;-62
2023/04/05 09:08:01;;;;;;;4.63;2.60;;;;;;;;;;8299881;28;20063;-62
2023/04/05 09:12:06;;;;;;;3.42;2.20;;;;;;;;;;8292437;28;20144;-62
2023/04/05 09:16:06;;;;;;;5.55;2.40;;;;;;;;;;8291615;28;21185;-62
2023/04/05 09:20:06;;;;;;;5.10;2.63;;;;;;;;;;8289736;28;20028;-62
2023/04/05 09:24:07;;;;;;;3.67;2.40;;;;;;;;;;8292609;28;20053;-62
2023/04/05 09:28:08;;;;;;;7.15;2.60;;;;;;;;;;8290608;28;20099;-62
2023/04/05 09:32:09;;;;;;;3.33;2.55;;;;;;;;;;8290822;28;20037;-62
2023/04/05 09:36:10;;;;;;;4.03;2.50;;;;;;;;;;8291570;28;20025;-62
2023/04/05 09:40:13;;;;;;;3.97;2.90;;;;;;;;;;8289689;28;20021;-61
2023/04/05 09:44:13;;;;;;;4.35;2.85;;;;;;;;;;8291362;28;20017;-62
2023/04/05 09:48:13;;;;;;;5.25;2.85;;;;;;;;;;8290908;28;20697;-63
2023/04/05 09:52:24;;;;;;;4.28;2.80;;;;;;;;;;8289458;28;20446;-62
2023/04/05 09:56:25;;;;;;;4.18;3.00;;;;;;;;;;8289259;28;20033;-62
2023/04/05 10:00:25;;;;;;;3.63;2.70;;;;;;;;;;8290402;28;20084;-62
2023/04/05 10:04:25;;;;;;;3.10;2.72;;;;;;;;;;8288042;28;20193;-61
2023/04/05 10:08:26;;;;;;;6.78;2.97;;;;;;;;;;8289459;28;20038;-61
2023/04/05 10:12:27;;;;;;;4.30;2.70;;;;;;;;;;8288904;28;20524;-62
2023/04/05 10:16:28;;;;;;;4.70;2.90;;;;;;;;;;8289701;28;20037;-61
2023/04/05 10:20:29;;;;;;;6.43;3.13;;;;;;;;;;8282460;28;20484;-61
2023/04/05 10:24:50;;;;;;;3.50;2.78;;;;;;;;;;8290033;28;20917;-61
2023/04/05 10:28:56;;;;;;;3.33;2.80;;;;;;;;;;8289141;28;20170;-61
2023/04/05 10:33:15;;;;;;;3.15;2.65;;;;;;;;;;8290171;28;20041;-61
2023/04/05 10:37:29;;;;;;;4.25;2.80;;;;;;;;;;8288035;28;20101;-61
2023/04/05 10:41:32;;;;;;;2.83;2.33;;;;;;;;;;8290286;28;20206;-62
2023/04/05 10:45:35;;;;;;;4.68;3.03;;;;;;;;;;8287402;28;20064;-62
2023/04/05 10:49:48;;;;;;;3.53;2.70;;;;;;;;;;8288500;28;20171;-62
2023/04/05 10:53:48;;;;;;;5.13;2.90;;;;;;;;;;8287716;28;20419;-62
2023/04/05 10:57:49;;;;;;;5.00;3.20;;;;;;;;;;8290499;28;20086;-61
2023/04/05 11:01:50;;;;;;;3.75;2.78;;;;;;;;;;8288394;28;20099;-62
2023/04/05 11:05:50;;;;;;;4.22;3.20;;;;;;;;;;8294027;28;20032;-62
2023/04/05 11:09:51;;;;;;;3.85;3.17;;;;;;;;;;8296334;28;20028;-62
2023/04/05 11:13:52;;;;;;;3.58;2.70;;;;;;;;;;8296313;28;20210;-62
2023/04/05 11:18:05;;;;;;;4.55;2.70;;;;;;;;;;8289778;28;20060;-62
2023/04/05 11:22:05;;;;;;;6.40;2.80;;;;;;;;;;8287590;28;20083;-63
2023/04/05 11:26:05;;;;;;;3.67;2.70;;;;;;;;;;8288332;28;20529;-62
2023/04/05 11:30:06;;;;;;;3.88;2.50;;;;;;;;;;8288101;28;20430;-63
2023/04/05 11:34:09;;;;;;;4.32;2.80;;;;;;;;;;8289178;28;20546;-62
2023/04/05 11:38:20;;;;;;;3.47;3.03;;;;;;;;;;8289925;28;20409;-62
2023/04/05 11:42:20;;;;;;;5.63;3.30;;;;;;;;;;8285867;28;20627;-63
2023/04/05 11:46:30;;;;;;;3.35;2.42;;;;;;;;;;8289002;28;20041;-63
2023/04/05 11:50:30;;;;;;;2.85;2.50;;;;;;;;;;8288486;28;20029;-63
2023/04/05 11:54:32;;;;;;;3.33;2.58;;;;;;;;;;8289363;28;20116;-62
2023/04/05 11:58:32;;;;;;;5.07;2.60;;;;;;;;;;8287935;28;20029;-62
2023/04/05 12:02:33;;;;;;;3.97;2.60;;;;;;;;;;8286777;28;20438;-63
2023/04/05 12:06:33;;;;;;;4.43;2.70;;;;;;;;;;8288148;28;20092;-62
2023/04/05 12:10:34;;;;;;;4.05;2.80;;;;;;;;;;8289064;28;20053;-63
2023/04/05 12:14:34;;;;;;;4.38;2.58;;;;;;;;;;8285516;28;20180;-62
2023/04/05 12:18:35;;;;;;;4.82;2.75;;;;;;;;;;8284792;28;20143;-63
2023/04/05 12:22:36;;;;;;;3.83;2.55;;;;;;;;;;8283771;28;20406;-63
2023/04/05 12:26:36;;;;;;;3.28;2.40;;;;;;;;;;8284913;28;20074;-62
2023/04/05 12:30:46;;;;;;;3.92;2.90;;;;;;;;;;8288763;28;20040;-62
2023/04/05 12:34:46;;;;;;;4.15;2.60;;;;;;;;;;8289637;28;20797;-62
2023/04/05 12:38:47;;;;;;;5.00;3.20;;;;;;;;;;8291480;28;20147;-62
2023/04/05 12:42:47;;;;;;;4.50;2.57;;;;;;;;;;8291027;28;20595;-63
2023/04/05 12:46:47;;;;;;;4.18;2.60;;;;;;;;;;8291530;28;20126;-62
2023/04/05 12:50:50;;;;;;;3.35;2.50;;;;;;;;;;8290792;28;20557;-62
2023/04/05 12:54:54;;;;;;;3.97;2.97;;;;;;;;;;8290929;28;20033;-62
2023/04/05 12:58:55;;;;;;;3.47;2.60;;;;;;;;;;8289414;28;20303;-62
2023/04/05 13:02:56;;;;;;;6.65;2.60;;;;;;;;;;8271372;28;20040;-63
2023/04/05 13:06:57;;;;;;;5.50;2.55;;;;;;;;;;8289420;28;20563;-62
2023/04/05 13:10:57;;;;;;;3.75;2.55;;;;;;;;;;8287243;28;20021;-66
2023/04/05 13:14:57;;;;;;;3.25;2.63;;;;;;;;;;8274562;28;20029;-64
2023/04/05 13:18:57;;;;;;;2.75;2.17;;;;;;;;;;8290588;28;20045;-62
2023/04/05 13:22:57;;;;;;;6.13;3.20;;;;;;;;;;8289139;28;20021;-64
2023/04/05 13:26:57;;;;;;;6.45;3.60;;;;;;;;;;8289727;28;20032;-65
2023/04/05 13:30:58;;;;;;;4.53;2.47;;;;;;;;;;8287078;28;20037;-62
2023/04/05 13:34:58;;;;;;;5.80;2.63;;;;;;;;;;8288368;28;20476;-62
2023/04/05 13:38:58;;;;;;;2.63;2.42;;;;;;;;;;8288060;28;20477;-61
2023/04/05 13:42:59;;;;;;;3.33;2.55;;;;;;;;;;8289219;28;20025;-62
2023/04/05 13:46:59;;;;;;;3.67;2.40;;;;;;;;;;8295120;28;20045;-62
2023/04/05 13:50:59;;;;;;;5.88;2.60;;;;;;;;;;8296342;28;20067;-62
2023/04/05 13:55:00;;;;;;;2.38;2.17;;;;;;;;;;8287233;28;20417;-62
2023/04/05 13:59:00;;;;;;;5.00;2.50;;;;;;;;;;8287538;28;20319;-62
2023/04/05 14:03:00;;;;;;;4.32;2.80;;;;;;;;;;8288893;28;20633;-62
2023/04/05 14:07:00;;;;;;;6.15;2.63;;;;;;;;;;8287381;28;20131;-62
2023/04/05 14:11:00;;;;;;;4.35;2.70;;;;;;;;;;8288434;28;20289;-62
2023/04/05 14:15:01;;;;;;;4.20;2.60;;;;;;;;;;8289293;28;20289;-62
2023/04/05 14:19:01;;;;;;;3.15;2.53;;;;;;;;;;8291775;28;20222;-62
2023/04/05 14:23:02;;;;;;;5.78;2.50;;;;;;;;;;8291772;28;20083;-62
2023/04/05 14:27:02;;;;;;;4.43;2.65;;;;;;;;;;8291841;28;20025;-62
2023/04/05 14:31:03;;;;;;;5.37;2.63;;;;;;;;;;8292058;28;20039;-62
2023/04/05 14:35:03;;;;;;;4.22;2.80;;;;;;;;;;8291648;28;20026;-62
2023/04/05 14:39:03;;;;;;;6.53;2.93;;;;;;;;;;8291983;28;20424;-62
2023/04/05 14:43:03;;;;;;;6.30;2.70;;;;;;;;;;8293215;28;20267;-62
2023/04/05 14:47:03;;;;;;;4.38;2.95;;;;;;;;;;8291914;28;20068;-62
2023/04/05 14:51:04;;;;;;;5.55;2.85;;;;;;;;;;8291678;28;20035;-62
2023/04/05 14:55:04;;;;;;;4.45;2.78;;;;;;;;;;8291917;28;20389;-62
2023/04/05 14:59:05;;;;;;;5.60;2.58;;;;;;;;;;8291618;28;20792;-62
2023/04/05 15:03:05;;;;;;;5.53;2.53;;;;;;;;;;8291800;28;20044;-62
2023/04/05 15:07:05;;;;;;;3.80;2.75;;;;;;;;;;8290374;28;20284;-62
2023/04/05 15:11:05;;;;;;;4.10;2.90;;;;;;;;;;8281084;28;20585;-62
2023/04/05 15:15:06;;;;;;;4.93;2.85;;;;;;;;;;8287420;28;20062;-62
2023/04/05 15:19:06;;;;;;;3.25;2.88;;;;;;;;;;8289638;28;20159;-62
2023/04/05 15:23:06;;;;;;;3.88;2.72;;;;;;;;;;8289142;28;20472;-61
2023/04/05 15:27:07;;;;;;;4.65;2.72;;;;;;;;;;8291739;28;20515;-62
2023/04/05 15:31:07;;;;;;;4.05;2.63;;;;;;;;;;8289354;28;20156;-62
2023/04/05 15:35:08;;;;;;;4.70;3.08;;;;;;;;;;8287991;28;20021;-61
2023/04/05 15:39:08;;;;;;;4.25;2.70;;;;;;;;;;8296197;28;20031;-62
2023/04/05 15:43:08;;;;;;;5.60;2.92;;;;;;;;;;8298867;28;20028;-61
2023/04/05 15:47:09;;;;;;;5.43;3.33;;;;;;;;;;8298359;28;20183;-61
2023/04/05 15:51:10;;;;;;;3.20;2.67;;;;;;;;;;8288440;28;20313;-61
2023/04/05 15:55:11;;;;;;;4.38;3.35;;;;;;;;;;8288780;28;20024;-61
2023/04/05 15:59:11;;;;;;;6.30;2.90;;;;;;;;;;8289628;28;20492;-61
2023/04/05 16:03:11;;;;;;;5.18;3.00;;;;;;;;;;8291308;28;20749;-61
2023/04/05 16:07:11;;;;;;;4.00;2.67;;;;;;;;;;8295992;28;20028;-62
2023/04/05 16:11:11;;;;;;;3.72;2.70;;;;;;;;;;8295029;28;20078;-62
2023/04/05 16:15:12;;;;;;;4.07;2.70;;;;;;;;;;8293561;28;20457;-61
2023/04/05 16:19:12;;;;;;;3.97;2.80;;;;;;;;;;8295869;28;20608;-61
2023/04/05 16:23:13;;;;;;;5.10;3.10;;;;;;;;;;8295087;28;20272;-61
2023/04/05 16:27:13;;;;;;;9.32;3.22;;;;;;;;;;8294285;28;20113;-61
2023/04/05 16:31:13;;;;;;;4.57;3.10;;;;;;;;;;8294957;28;20080;-61
2023/04/05 16:35:14;;;;;;;3.42;2.95;;;;;;;;;;8294505;28;20013;-61
2023/04/05 16:39:15;;;;;;;6.85;3.47;;;;;;;;;;8292946;28;20402;-61
2023/04/05 16:43:15;;;;;;;5.25;2.90;;;;;;;;;;8294119;28;20032;-61
2023/04/05 16:47:15;;;;;;;4.40;3.03;;;;;;;;;;8292747;28;20167;-62
2023/04/05 16:51:16;;;;;;;4.38;2.95;;;;;;;;;;8292956;28;20076;-61
2023/04/05 16:55:16;;;;;;;4.35;3.25;;;;;;;;;;8293484;28;20151;-61
2023/04/05 16:59:16;;;;;;;4.65;3.20;;;;;;;;;;8292210;28;20712;-61
2023/04/05 17:03:16;;;;;;;8.75;3.17;;;;;;;;;;8292473;28;20049;-61
2023/04/05 17:07:17;;;;;;;4.78;3.65;;;;;;;;;;8293260;28;20017;-61
2023/04/05 17:11:17;;;;;;;5.80;3.38;;;;;;;;;;8294083;28;20540;-61
2023/04/05 17:15:17;;;;;;;4.53;3.00;;;;;;;;;;8293130;28;20860;-61
2023/04/05 17:19:17;;;;;;;7.13;3.63;;;;;;;;;;8295513;28;20033;-61
2023/04/05 17:23:17;;;;;;;4.00;3.00;;;;;;;;;;8292499;28;20729;-61
2023/04/05 17:27:17;;;;;;;4.03;3.17;;;;;;;;;;8294091;28;20128;-61
2023/04/05 17:31:18;;;;;;;4.00;3.20;;;;;;;;;;8293772;28;20045;-61
2023/04/05 17:35:18;;;;;;;3.47;3.10;;;;;;;;;;8293345;28;20110;-61
2023/04/05 17:39:18;;;;;;;4.30;3.17;;;;;;;;;;8291107;28;20481;-61
2023/04/05 17:43:18;;;;;;;7.53;3.65;;;;;;;;;;8290760;28;20280;-61
2023/04/05 17:47:19;;;;;;;3.95;3.03;;;;;;;;;;8293698;28;20635;-61
2023/04/05 17:51:19;;;;;;;4.80;2.72;;;;;;;;;;8299580;28;20031;-61
2023/04/05 17:55:20;;;;;;;6.22;2.95;;;;;;;;;;8295062;28;20354;-61
2023/04/05 17:59:20;;;;;;;3.83;3.00;;;;;;;;;;8292462;28;20430;-61
2023/04/05 18:03:20;;;;;;;4.32;3.15;;;;;;;;;;8291460;28;20041;-61
2023/04/05 18:07:20;;;;;;;5.85;3.90;;;;;;;;;;8292162;28;20028;-60
2023/04/05 18:11:21;;;;;;;5.25;3.92;;;;;;;;;;8288972;28;20071;-60
2023/04/05 18:15:21;;;;;;;10.90;5.35;;;;;;;;;;8290713;28;20638;-60
2023/04/05 18:19:21;;;;;;;7.80;5.40;;;;;;;;;;8290196;28;20029;-60
2023/04/05 18:23:23;;;;;;;7.63;4.68;;;;;;;;;;8289807;28;20116;-60
2023/04/05 18:27:23;;;;;;;11.73;5.18;;;;;;;;;;8284949;28;20025;-60
2023/04/05 18:31:24;;;;;;;5.68;3.85;;;;;;;;;;8285480;28;20064;-60
2023/04/05 18:35:24;;;;;;;5.72;4.50;;;;;;;;;;8286628;28;20056;-60
2023/04/05 18:39:24;;;;;;;7.65;4.38;;;;;;;;;;8287324;28;20025;-60
2023/04/05 18:43:24;;;;;;;6.67;4.13;;;;;;;;;;8286746;28;20491;-60
2023/04/05 18:47:25;;;;;;;6.40;4.40;;;;;;;;;;8285653;28;20306;-60
2023/04/05 18:51:26;;;;;;;5.93;4.43;;;;;;;;;;8285045;28;20429;-60
2023/04/05 18:55:26;;;;;;;9.05;4.95;;;;;;;;;;8284464;28;20694;-60
2023/04/05 18:59:28;;;;;;;6.38;4.13;;;;;;;;;;8285443;28;20417;-60
2023/04/05 19:03:28;;;;;;;6.63;4.47;;;;;;;;;;8286077;28;20453;-60
2023/04/05 19:07:28;;;;;;;6.35;3.88;;;;;;;;;;8282825;28;20374;-60
2023/04/05 19:11:28;;;;;;;4.68;3.72;;;;;;;;;;8285962;28;20025;-60
2023/04/05 19:15:29;;;;;;;6.18;3.78;;;;;;;;;;8286210;28;20666;-60
2023/04/05 19:19:29;;;;;;;4.18;3.30;;;;;;;;;;8285276;28;20026;-60
2023/04/05 19:23:30;;;;;;;3.80;3.03;;;;;;;;;;8284117;28;20229;-60
2023/04/05 19:27:33;;;;;;;6.03;3.35;;;;;;;;;;8284151;28;20458;-60
2023/04/05 19:31:34;;;;;;;4.03;2.60;;;;;;;;;;8283839;28;20038;-60
2023/04/05 19:35:35;;;;;;;4.50;2.53;;;;;;;;;;8282738;28;20084;-60
2023/04/05 19:39:35;;;;;;;3.50;2.70;;;;;;;;;;8288920;28;20040;-60
2023/04/05 19:43:35;;;;;;;2.65;2.15;;;;;;;;;;8292063;28;20354;-60
2023/04/05 19:47:40;;;;;;;4.63;2.88;;;;;;;;;;8289609;28;20607;-60
2023/04/05 19:51:41;;;;;;;4.82;2.67;;;;;;;;;;8291242;28;20509;-60
2023/04/05 19:55:41;;;;;;;5.10;2.88;;;;;;;;;;8292712;28;20036;-60
2023/04/05 19:59:41;;;;;;;4.55;2.78;;;;;;;;;;8290690;28;20049;-60
2023/04/05 20:03:42;;;;;;;4.38;2.80;;;;;;;;;;8291056;28;20033;-60
2023/04/05 20:07:42;;;;;;;3.55;2.75;;;;;;;;;;8288341;28;20406;-60
2023/04/05 20:11:46;;;;;;;3.43;2.60;;;;;;;;;;8287938;28;20670;-60
2023/04/05 20:15:48;;;;;;;;;;;;;;;;;;8290231;28;20045;-60
2023/04/05 20:19:55;;;;;;;4.57;2.78;;;;;;;;;;8289290;28;19923;-60
2023/04/05 20:23:56;;;;;;;4.40;3.13;;;;;;;;;;8290237;28;20035;-60
2023/04/05 20:27:56;;;;;;;3.50;2.70;;;;;;;;;;8291815;28;20091;-60
2023/04/05 20:31:56;;;;;;;3.85;2.40;;;;;;;;;;8294449;28;20137;-60
2023/04/05 20:35:57;;;;;;;4.13;2.85;;;;;;;;;;8294475;28;20590;-60
2023/04/05 20:39:57;;;;;;;4.35;3.08;;;;;;;;;;8293581;28;20072;-60
2023/04/05 20:43:58;;;;;;;4.50;3.20;;;;;;;;;;8281473;28;20033;-60
2023/04/05 20:47:59;;;;;;;4.88;3.25;;;;;;;;;;8294049;28;20044;-60
2023/04/05 20:52:03;;;;;;;4.22;2.72;;;;;;;;;;8296807;28;20052;-60
2023/04/05 20:56:05;;;;;;;3.30;2.65;;;;;;;;;;8302517;28;20032;-60
2023/04/05 21:00:06;;;;;;;3.42;2.80;;;;;;;;;;8303629;28;20021;-60
2023/04/05 21:04:06;;;;;;;3.50;2.80;;;;;;;;;;8302876;28;21311;-60
2023/04/05 21:08:06;;;;;;;3.20;2.72;;;;;;;;;;8303987;28;20495;-60
2023/04/05 21:12:07;;;;;;;3.97;3.17;;;;;;;;;;8295594;28;20029;-60
2023/04/05 21:16:07;;;;;;;4.97;3.05;;;;;;;;;;8286551;28;21472;-60
2023/04/05 21:20:07;;;;;;;3.38;2.90;;;;;;;;;;8303192;28;20041;-60
2023/04/05 21:24:07;;;;;;;4.88;3.22;;;;;;;;;;8301939;28;20670;-60
2023/04/05 21:28:08;;;;;;;6.00;3.70;;;;;;;;;;8303056;28;20025;-60
2023/04/05 21:32:08;;;;;;;6.93;4.07;;;;;;;;;;8300686;28;20049;-60
2023/04/05 21:36:08;;;;;;;6.35;3.60;;;;;;;;;;8300451;28;20037;-60
2023/04/05 21:40:08;;;;;;;5.35;3.97;;;;;;;;;;8301229;28;20112;-60
2023/04/05 21:44:09;;;;;;;5.15;3.42;;;;;;;;;;8296536;28;20064;-60
2023/04/05 21:48:09;;;;;;;4.90;3.35;;;;;;;;;;8289611;28;20556;-60
2023/04/05 21:52:09;;;;;;;10.25;3.45;;;;;;;;;;8290760;28;20400;-60
2023/04/05 21:56:09;;;;;;;5.20;2.97;;;;;;;;;;8296666;28;20022;-60
2023/04/05 22:00:10;;;;;;;3.92;2.80;;;;;;;;;;8298928;28;20096;-60
2023/04/05 22:04:10;;;;;;;3.60;2.75;;;;;;;;;;8293451;28;20100;-60
2023/04/05 22:08:10;;;;;;;3.85;2.97;;;;;;;;;;8292417;28;20029;-59
2023/04/05 22:12:11;;;;;;;7.88;3.60;;;;;;;;;;8294156;28;20781;-60
2023/04/05 22:16:11;;;;;;;6.20;3.50;;;;;;;;;;8299091;28;20048;-60
2023/04/05 22:20:11;;;;;;;5.47;3.13;;;;;;;;;;8290083;28;20060;-60
2023/04/05 22:24:12;;;;;;;7.32;3.17;;;;;;;;;;8299130;28;20409;-60
2023/04/05 22:28:12;;;;;;;4.47;3.08;;;;;;;;;;8300269;28;20020;-60
2023/04/05 22:32:13;;;;;;;4.53;2.90;;;;;;;;;;8299642;28;20318;-60
2023/04/05 22:36:13;;;;;;;3.72;2.80;;;;;;;;;;8301019;28;20029;-60
2023/04/05 22:40:13;;;;;;;5.15;2.90;;;;;;;;;;8299885;28;20196;-60
2023/04/05 22:44:13;;;;;;;4.18;2.90;;;;;;;;;;8300463;28;20187;-60
2023/04/05 22:48:13;;;;;;;3.97;2.78;;;;;;;;;;8298845;28;20041;-60
2023/04/05 22:52:13;;;;;;;8.88;3.15;;;;;;;;;;8299435;28;20130;-60
2023/04/05 22:56:16;;;;;;;6.28;3.53;;;;;;;;;;8299321;28;20055;-60
2023/04/05 23:00:16;;;;;;;4.90;3.05;;;;;;;;;;8298132;28;20077;-60
2023/04/05 23:04:16;;;;;;;5.32;2.85;;;;;;;;;;8298126;28;20029;-60
2023/04/05 23:08:17;;;;;;;4.25;2.85;;;;;;;;;;8300389;28;20688;-60
2023/04/05 23:12:17;;;;;;;3.92;2.65;;;;;;;;;;8296463;28;20063;-60
2023/04/05 23:16:17;;;;;;;4.07;2.55;;;;;;;;;;8299687;28;20124;-60
2023/04/05 23:20:17;;;;;;;5.20;2.37;;;;;;;;;;8298772;28;20017;-60
2023/04/05 23:24:17;;;;;;;2.65;2.20;;;;;;;;;;8300965;28;20275;-60
2023/04/05 23:28:18;;;;;;;4.60;2.83;;;;;;;;;;8300064;28;20112;-60
2023/04/05 23:32:18;;;;;;;3.53;2.70;;;;;;;;;;8298322;28;20588;-60
2023/04/05 23:36:18;;;;;;;4.28;2.58;;;;;;;;;;8296577;28;20060;-60
2023/04/05 23:40:18;;;;;;;3.45;2.22;;;;;;;;;;8299630;28;20128;-60
2023/04/05 23:44:19;;;;;;;3.17;2.50;;;;;;;;;;8284887;28;20037;-60
2023/04/05 23:48:19;;;;;;;3.58;2.47;;;;;;;;;;8298135;28;20104;-60
2023/04/05 23:52:20;;;;;;;2.60;2.20;;;;;;;;;;8300559;28;20036;-60
2023/04/05 23:56:20;;;;;;;2.65;2.28;;;;;;;;;;8300714;28;20017;-60
